sensor_id;sensor_type;location;lat;lon;timestamp;P1;durP1;ratioP1;P2;durP2;ratioP2
20008;SDS011;10165;42.662;23.260;2023-04-24T00:01:01;12.47;;;6.00;;
20008;SDS011;10165;42.662;23.260;2023-04-24T00:03:30;7.30;;;4.87;;
20008;SDS011;10165;42.662;23.260;2023-04-24T00:05:56;6.37;;;4.40;;
20008;SDS011;10165;42.662;23.260;2023-04-24T00:08:25;8.77;;;5.40;;
20008;SDS011;10165;42.662;23.260;2023-04-24T00:10:52;11.30;;;5.40;;
20008;SDS011;10165;42.662;23.260;2023-04-24T00:13:19;5.93;;;4.57;;
20008;SDS011;10165;42.662;23.260;2023-04-24T00:15:45;8.63;;;4.80;;
20008;SDS011;10165;42.662;23.260;2023-04-24T00:18:12;7.60;;;4.33;;
20008;SDS011;10165;42.662;23.260;2023-04-24T00:20:39;8.07;;;5.90;;
20008;SDS011;10165;42.662;23.260;2023-04-24T00:23:06;10.77;;;6.30;;
20008;SDS011;10165;42.662;23.260;2023-04-24T00:25:32;7.37;;;5.67;;
20008;SDS011;10165;42.662;23.260;2023-04-24T00:27:59;6.60;;;5.10;;
20008;SDS011;10165;42.662;23.260;2023-04-24T00:30:27;7.77;;;5.37;;
20008;SDS011;10165;42.662;23.260;2023-04-24T00:32:53;10.47;;;5.27;;
20008;SDS011;10165;42.662;23.260;2023-04-24T00:35:20;11.77;;;5.37;;
20008;SDS011;10165;42.662;23.260;2023-04-24T00:37:47;7.23;;;4.63;;
20008;SDS011;10165;42.662;23.260;2023-04-24T00:40:14;8.80;;;5.27;;
20008;SDS011;10165;42.662;23.260;2023-04-24T00:42:40;9.50;;;5.30;;
20008;SDS011;10165;42.662;23.260;2023-04-24T00:45:08;8.17;;;5.43;;
20008;SDS011;10165;42.662;23.260;2023-04-24T00:47:35;9.43;;;5.23;;
20008;SDS011;10165;42.662;23.260;2023-04-24T00:50:05;8.17;;;4.77;;
20008;SDS011;10165;42.662;23.260;2023-04-24T00:52:33;6.00;;;4.70;;
20008;SDS011;10165;42.662;23.260;2023-04-24T00:54:59;10.17;;;5.90;;
20008;SDS011;10165;42.662;23.260;2023-04-24T00:57:27;6.07;;;4.90;;
20008;SDS011;10165;42.662;23.260;2023-04-24T00:59:54;7.47;;;4.70;;
20008;SDS011;10165;42.662;23.260;2023-04-24T01:02:21;10.13;;;5.47;;
20008;SDS011;10165;42.662;23.260;2023-04-24T01:04:50;7.77;;;5.30;;
20008;SDS011;10165;42.662;23.260;2023-04-24T01:07:20;9.27;;;5.00;;
20008;SDS011;10165;42.662;23.260;2023-04-24T01:09:47;9.43;;;5.53;;
20008;SDS011;10165;42.662;23.260;2023-04-24T01:12:17;6.67;;;5.30;;
20008;SDS011;10165;42.662;23.260;2023-04-24T01:14:45;8.20;;;5.97;;
20008;SDS011;10165;42.662;23.260;2023-04-24T01:17:12;9.40;;;5.77;;
20008;SDS011;10165;42.662;23.260;2023-04-24T01:19:38;10.37;;;5.67;;
20008;SDS011;10165;42.662;23.260;2023-04-24T01:22:10;8.90;;;6.17;;
20008;SDS011;10165;42.662;23.260;2023-04-24T01:24:38;8.20;;;6.33;;
20008;SDS011;10165;42.662;23.260;2023-04-24T01:27:05;9.03;;;6.23;;
20008;SDS011;10165;42.662;23.260;2023-04-24T01:29:32;7.87;;;6.10;;
20008;SDS011;10165;42.662;23.260;2023-04-24T01:32:00;12.50;;;6.67;;
20008;SDS011;10165;42.662;23.260;2023-04-24T01:34:28;8.13;;;6.73;;
20008;SDS011;10165;42.662;23.260;2023-04-24T01:36:55;8.90;;;5.57;;
20008;SDS011;10165;42.662;23.260;2023-04-24T01:39:22;8.53;;;5.67;;
20008;SDS011;10165;42.662;23.260;2023-04-24T01:41:51;9.00;;;5.77;;
20008;SDS011;10165;42.662;23.260;2023-04-24T01:44:22;8.33;;;5.93;;
20008;SDS011;10165;42.662;23.260;2023-04-24T01:46:49;8.93;;;6.47;;
20008;SDS011;10165;42.662;23.260;2023-04-24T01:49:17;10.27;;;5.97;;
20008;SDS011;10165;42.662;23.260;2023-04-24T01:51:43;7.97;;;5.17;;
20008;SDS011;10165;42.662;23.260;2023-04-24T01:54:10;12.53;;;5.67;;
20008;SDS011;10165;42.662;23.260;2023-04-24T01:56:39;10.83;;;6.07;;
20008;SDS011;10165;42.662;23.260;2023-04-24T01:59:12;7.50;;;5.40;;
20008;SDS011;10165;42.662;23.260;2023-04-24T02:01:38;8.73;;;6.03;;
20008;SDS011;10165;42.662;23.260;2023-04-24T02:04:06;9.03;;;6.00;;
20008;SDS011;10165;42.662;23.260;2023-04-24T02:06:34;11.90;;;6.57;;
20008;SDS011;10165;42.662;23.260;2023-04-24T02:09:01;16.83;;;8.83;;
20008;SDS011;10165;42.662;23.260;2023-04-24T02:11:29;14.13;;;7.43;;
20008;SDS011;10165;42.662;23.260;2023-04-24T02:13:56;12.27;;;7.47;;
20008;SDS011;10165;42.662;23.260;2023-04-24T02:16:23;9.70;;;6.27;;
20008;SDS011;10165;42.662;23.260;2023-04-24T02:18:50;7.70;;;6.17;;
20008;SDS011;10165;42.662;23.260;2023-04-24T02:21:16;12.20;;;5.40;;
20008;SDS011;10165;42.662;23.260;2023-04-24T02:23:43;10.80;;;5.53;;
20008;SDS011;10165;42.662;23.260;2023-04-24T02:26:10;8.77;;;5.77;;
20008;SDS011;10165;42.662;23.260;2023-04-24T02:28:37;11.13;;;5.50;;
20008;SDS011;10165;42.662;23.260;2023-04-24T02:31:04;7.03;;;5.03;;
20008;SDS011;10165;42.662;23.260;2023-04-24T02:33:31;9.77;;;5.97;;
20008;SDS011;10165;42.662;23.260;2023-04-24T02:35:58;12.23;;;6.43;;
20008;SDS011;10165;42.662;23.260;2023-04-24T02:38:25;9.10;;;6.00;;
20008;SDS011;10165;42.662;23.260;2023-04-24T02:40:52;9.73;;;5.70;;
20008;SDS011;10165;42.662;23.260;2023-04-24T02:43:19;10.50;;;5.30;;
20008;SDS011;10165;42.662;23.260;2023-04-24T02:45:45;7.63;;;5.50;;
20008;SDS011;10165;42.662;23.260;2023-04-24T02:48:12;9.67;;;6.60;;
20008;SDS011;10165;42.662;23.260;2023-04-24T02:50:39;8.13;;;5.90;;
20008;SDS011;10165;42.662;23.260;2023-04-24T02:53:06;9.90;;;6.33;;
20008;SDS011;10165;42.662;23.260;2023-04-24T02:55:32;10.50;;;7.17;;
20008;SDS011;10165;42.662;23.260;2023-04-24T02:57:59;7.10;;;5.60;;
20008;SDS011;10165;42.662;23.260;2023-04-24T03:00:26;9.60;;;5.83;;
20008;SDS011;10165;42.662;23.260;2023-04-24T03:02:52;8.00;;;5.70;;
20008;SDS011;10165;42.662;23.260;2023-04-24T03:05:19;9.63;;;5.67;;
20008;SDS011;10165;42.662;23.260;2023-04-24T03:07:46;12.23;;;6.20;;
20008;SDS011;10165;42.662;23.260;2023-04-24T03:10:13;8.70;;;5.77;;
20008;SDS011;10165;42.662;23.260;2023-04-24T03:12:39;8.27;;;5.07;;
20008;SDS011;10165;42.662;23.260;2023-04-24T03:15:06;9.93;;;5.10;;
20008;SDS011;10165;42.662;23.260;2023-04-24T03:17:33;8.33;;;5.07;;
20008;SDS011;10165;42.662;23.260;2023-04-24T03:20:01;6.90;;;4.70;;
20008;SDS011;10165;42.662;23.260;2023-04-24T03:22:28;7.17;;;5.13;;
20008;SDS011;10165;42.662;23.260;2023-04-24T03:24:54;6.30;;;4.77;;
20008;SDS011;10165;42.662;23.260;2023-04-24T03:27:22;15.60;;;5.33;;
20008;SDS011;10165;42.662;23.260;2023-04-24T03:29:49;6.37;;;5.03;;
20008;SDS011;10165;42.662;23.260;2023-04-24T03:32:21;7.97;;;5.37;;
20008;SDS011;10165;42.662;23.260;2023-04-24T03:34:49;5.47;;;4.70;;
20008;SDS011;10165;42.662;23.260;2023-04-24T03:37:16;9.63;;;4.87;;
20008;SDS011;10165;42.662;23.260;2023-04-24T03:39:43;6.20;;;4.77;;
20008;SDS011;10165;42.662;23.260;2023-04-24T03:42:10;6.00;;;3.97;;
20008;SDS011;10165;42.662;23.260;2023-04-24T03:44:37;5.37;;;4.87;;
20008;SDS011;10165;42.662;23.260;2023-04-24T03:47:03;7.87;;;5.17;;
20008;SDS011;10165;42.662;23.260;2023-04-24T03:49:30;5.30;;;4.27;;
20008;SDS011;10165;42.662;23.260;2023-04-24T03:51:57;5.43;;;4.50;;
20008;SDS011;10165;42.662;23.260;2023-04-24T03:54:24;9.13;;;5.33;;
20008;SDS011;10165;42.662;23.260;2023-04-24T03:56:50;6.13;;;4.60;;
20008;SDS011;10165;42.662;23.260;2023-04-24T03:59:17;7.57;;;4.80;;
20008;SDS011;10165;42.662;23.260;2023-04-24T04:01:43;5.67;;;4.40;;
20008;SDS011;10165;42.662;23.260;2023-04-24T04:04:11;7.80;;;5.27;;
20008;SDS011;10165;42.662;23.260;2023-04-24T04:06:38;10.30;;;5.00;;
20008;SDS011;10165;42.662;23.260;2023-04-24T04:09:05;8.40;;;5.60;;
20008;SDS011;10165;42.662;23.260;2023-04-24T04:11:33;6.77;;;5.13;;
20008;SDS011;10165;42.662;23.260;2023-04-24T04:13:59;8.23;;;5.53;;
20008;SDS011;10165;42.662;23.260;2023-04-24T04:16:26;8.60;;;4.80;;
20008;SDS011;10165;42.662;23.260;2023-04-24T04:18:53;7.20;;;4.83;;
20008;SDS011;10165;42.662;23.260;2023-04-24T04:21:20;6.73;;;4.93;;
20008;SDS011;10165;42.662;23.260;2023-04-24T04:23:46;8.67;;;5.83;;
20008;SDS011;10165;42.662;23.260;2023-04-24T04:26:14;8.70;;;4.67;;
20008;SDS011;10165;42.662;23.260;2023-04-24T04:28:41;11.63;;;6.10;;
20008;SDS011;10165;42.662;23.260;2023-04-24T04:31:07;7.93;;;5.07;;
20008;SDS011;10165;42.662;23.260;2023-04-24T04:33:34;7.57;;;5.60;;
20008;SDS011;10165;42.662;23.260;2023-04-24T04:36:02;7.47;;;5.53;;
20008;SDS011;10165;42.662;23.260;2023-04-24T04:38:30;7.33;;;5.67;;
20008;SDS011;10165;42.662;23.260;2023-04-24T04:40:57;8.87;;;5.80;;
20008;SDS011;10165;42.662;23.260;2023-04-24T04:43:24;10.73;;;5.80;;
20008;SDS011;10165;42.662;23.260;2023-04-24T04:45:52;6.73;;;5.13;;
20008;SDS011;10165;42.662;23.260;2023-04-24T04:48:18;9.93;;;5.70;;
20008;SDS011;10165;42.662;23.260;2023-04-24T04:50:45;8.03;;;6.47;;
20008;SDS011;10165;42.662;23.260;2023-04-24T04:53:12;8.90;;;5.00;;
20008;SDS011;10165;42.662;23.260;2023-04-24T04:55:38;6.17;;;5.57;;
20008;SDS011;10165;42.662;23.260;2023-04-24T04:58:05;10.00;;;6.13;;
20008;SDS011;10165;42.662;23.260;2023-04-24T05:00:32;16.50;;;6.70;;
20008;SDS011;10165;42.662;23.260;2023-04-24T05:03:02;8.50;;;5.40;;
20008;SDS011;10165;42.662;23.260;2023-04-24T05:05:46;9.10;;;6.03;;
20008;SDS011;10165;42.662;23.260;2023-04-24T05:08:12;9.13;;;5.03;;
20008;SDS011;10165;42.662;23.260;2023-04-24T05:10:52;9.33;;;5.20;;
20008;SDS011;10165;42.662;23.260;2023-04-24T05:13:18;9.87;;;5.97;;
20008;SDS011;10165;42.662;23.260;2023-04-24T05:15:57;9.10;;;6.07;;
20008;SDS011;10165;42.662;23.260;2023-04-24T05:18:24;7.67;;;5.43;;
20008;SDS011;10165;42.662;23.260;2023-04-24T05:20:51;8.93;;;5.83;;
20008;SDS011;10165;42.662;23.260;2023-04-24T05:23:17;9.67;;;6.10;;
20008;SDS011;10165;42.662;23.260;2023-04-24T05:25:44;10.07;;;6.53;;
20008;SDS011;10165;42.662;23.260;2023-04-24T05:28:12;13.67;;;5.83;;
20008;SDS011;10165;42.662;23.260;2023-04-24T05:30:39;14.03;;;5.97;;
20008;SDS011;10165;42.662;23.260;2023-04-24T05:33:05;8.93;;;6.00;;
20008;SDS011;10165;42.662;23.260;2023-04-24T05:35:32;9.37;;;5.97;;
20008;SDS011;10165;42.662;23.260;2023-04-24T05:37:59;7.67;;;5.63;;
20008;SDS011;10165;42.662;23.260;2023-04-24T05:40:26;8.13;;;6.27;;
20008;SDS011;10165;42.662;23.260;2023-04-24T05:42:52;8.20;;;5.97;;
20008;SDS011;10165;42.662;23.260;2023-04-24T05:45:19;13.90;;;5.70;;
20008;SDS011;10165;42.662;23.260;2023-04-24T05:47:46;9.53;;;5.50;;
20008;SDS011;10165;42.662;23.260;2023-04-24T05:50:13;10.17;;;5.83;;
20008;SDS011;10165;42.662;23.260;2023-04-24T05:52:40;7.57;;;5.77;;
20008;SDS011;10165;42.662;23.260;2023-04-24T05:55:06;4.53;;;3.97;;
20008;SDS011;10165;42.662;23.260;2023-04-24T05:57:34;6.53;;;4.73;;
20008;SDS011;10165;42.662;23.260;2023-04-24T06:00:00;6.93;;;4.50;;
20008;SDS011;10165;42.662;23.260;2023-04-24T06:02:27;7.33;;;4.20;;
20008;SDS011;10165;42.662;23.260;2023-04-24T06:04:58;5.57;;;4.40;;
20008;SDS011;10165;42.662;23.260;2023-04-24T06:07:26;11.67;;;6.67;;
20008;SDS011;10165;42.662;23.260;2023-04-24T06:09:52;6.90;;;5.10;;
20008;SDS011;10165;42.662;23.260;2023-04-24T06:12:19;5.57;;;4.70;;
20008;SDS011;10165;42.662;23.260;2023-04-24T06:14:46;7.73;;;5.00;;
20008;SDS011;10165;42.662;23.260;2023-04-24T06:17:13;11.37;;;5.07;;
20008;SDS011;10165;42.662;23.260;2023-04-24T06:19:39;6.17;;;4.10;;
20008;SDS011;10165;42.662;23.260;2023-04-24T06:22:07;5.87;;;4.40;;
20008;SDS011;10165;42.662;23.260;2023-04-24T06:24:36;6.80;;;4.90;;
20008;SDS011;10165;42.662;23.260;2023-04-24T06:27:03;12.13;;;5.13;;
20008;SDS011;10165;42.662;23.260;2023-04-24T06:29:29;17.50;;;5.27;;
20008;SDS011;10165;42.662;23.260;2023-04-24T06:31:56;8.60;;;5.00;;
20008;SDS011;10165;42.662;23.260;2023-04-24T06:34:23;7.13;;;4.77;;
20008;SDS011;10165;42.662;23.260;2023-04-24T06:36:50;11.23;;;5.07;;
20008;SDS011;10165;42.662;23.260;2023-04-24T06:39:17;9.47;;;5.30;;
20008;SDS011;10165;42.662;23.260;2023-04-24T06:41:43;18.13;;;6.00;;
20008;SDS011;10165;42.662;23.260;2023-04-24T06:44:10;10.60;;;5.40;;
20008;SDS011;10165;42.662;23.260;2023-04-24T06:46:39;8.83;;;5.37;;
20008;SDS011;10165;42.662;23.260;2023-04-24T06:49:07;6.57;;;5.23;;
20008;SDS011;10165;42.662;23.260;2023-04-24T06:51:33;6.60;;;4.70;;
20008;SDS011;10165;42.662;23.260;2023-04-24T06:54:00;7.37;;;5.30;;
20008;SDS011;10165;42.662;23.260;2023-04-24T06:56:28;16.47;;;6.33;;
20008;SDS011;10165;42.662;23.260;2023-04-24T06:58:55;8.37;;;4.93;;
20008;SDS011;10165;42.662;23.260;2023-04-24T07:01:22;7.97;;;5.37;;
20008;SDS011;10165;42.662;23.260;2023-04-24T07:03:49;9.20;;;5.63;;
20008;SDS011;10165;42.662;23.260;2023-04-24T07:06:16;14.63;;;5.83;;
20008;SDS011;10165;42.662;23.260;2023-04-24T07:08:44;7.73;;;5.13;;
20008;SDS011;10165;42.662;23.260;2023-04-24T07:11:12;10.47;;;5.07;;
20008;SDS011;10165;42.662;23.260;2023-04-24T07:13:39;8.20;;;5.03;;
20008;SDS011;10165;42.662;23.260;2023-04-24T07:16:08;6.30;;;4.93;;
20008;SDS011;10165;42.662;23.260;2023-04-24T07:18:35;13.10;;;4.50;;
20008;SDS011;10165;42.662;23.260;2023-04-24T07:21:02;8.70;;;5.40;;
20008;SDS011;10165;42.662;23.260;2023-04-24T07:23:29;13.97;;;5.53;;
20008;SDS011;10165;42.662;23.260;2023-04-24T07:25:56;9.07;;;5.13;;
20008;SDS011;10165;42.662;23.260;2023-04-24T07:28:23;6.43;;;4.87;;
20008;SDS011;10165;42.662;23.260;2023-04-24T07:30:50;11.87;;;5.57;;
20008;SDS011;10165;42.662;23.260;2023-04-24T07:33:20;5.90;;;4.80;;
20008;SDS011;10165;42.662;23.260;2023-04-24T07:35:47;7.77;;;4.77;;
20008;SDS011;10165;42.662;23.260;2023-04-24T07:38:14;8.60;;;4.57;;
20008;SDS011;10165;42.662;23.260;2023-04-24T07:40:41;7.33;;;4.30;;
20008;SDS011;10165;42.662;23.260;2023-04-24T07:43:08;7.03;;;4.27;;
20008;SDS011;10165;42.662;23.260;2023-04-24T07:45:34;5.87;;;4.40;;
20008;SDS011;10165;42.662;23.260;2023-04-24T07:48:03;11.73;;;4.80;;
20008;SDS011;10165;42.662;23.260;2023-04-24T07:50:31;7.57;;;4.80;;
20008;SDS011;10165;42.662;23.260;2023-04-24T07:52:58;7.43;;;4.93;;
20008;SDS011;10165;42.662;23.260;2023-04-24T07:55:24;6.73;;;4.43;;
20008;SDS011;10165;42.662;23.260;2023-04-24T07:57:53;5.87;;;4.67;;
20008;SDS011;10165;42.662;23.260;2023-04-24T08:00:20;7.33;;;4.40;;
20008;SDS011;10165;42.662;23.260;2023-04-24T08:02:47;7.00;;;4.90;;
20008;SDS011;10165;42.662;23.260;2023-04-24T08:05:14;4.07;;;3.50;;
20008;SDS011;10165;42.662;23.260;2023-04-24T08:07:41;7.93;;;4.27;;
20008;SDS011;10165;42.662;23.260;2023-04-24T08:10:12;9.07;;;4.60;;
20008;SDS011;10165;42.662;23.260;2023-04-24T08:12:39;5.70;;;4.57;;
20008;SDS011;10165;42.662;23.260;2023-04-24T08:15:06;7.03;;;4.90;;
20008;SDS011;10165;42.662;23.260;2023-04-24T08:17:34;6.00;;;4.73;;
20008;SDS011;10165;42.662;23.260;2023-04-24T08:20:03;6.03;;;4.43;;
20008;SDS011;10165;42.662;23.260;2023-04-24T08:22:31;11.63;;;4.97;;
20008;SDS011;10165;42.662;23.260;2023-04-24T08:24:59;5.20;;;4.63;;
20008;SDS011;10165;42.662;23.260;2023-04-24T08:27:26;6.00;;;4.63;;
20008;SDS011;10165;42.662;23.260;2023-04-24T08:29:53;8.03;;;5.07;;
20008;SDS011;10165;42.662;23.260;2023-04-24T08:32:20;8.47;;;5.27;;
20008;SDS011;10165;42.662;23.260;2023-04-24T08:34:47;7.63;;;4.60;;
20008;SDS011;10165;42.662;23.260;2023-04-24T08:37:16;6.73;;;4.47;;
20008;SDS011;10165;42.662;23.260;2023-04-24T08:39:42;7.90;;;4.77;;
20008;SDS011;10165;42.662;23.260;2023-04-24T08:42:09;8.13;;;5.03;;
20008;SDS011;10165;42.662;23.260;2023-04-24T08:44:39;6.27;;;4.77;;
20008;SDS011;10165;42.662;23.260;2023-04-24T08:47:06;8.87;;;4.70;;
20008;SDS011;10165;42.662;23.260;2023-04-24T08:49:35;9.53;;;4.50;;
20008;SDS011;10165;42.662;23.260;2023-04-24T08:52:03;5.50;;;4.90;;
20008;SDS011;10165;42.662;23.260;2023-04-24T08:54:31;7.43;;;5.57;;
20008;SDS011;10165;42.662;23.260;2023-04-24T08:57:01;6.73;;;4.60;;
20008;SDS011;10165;42.662;23.260;2023-04-24T08:59:30;7.97;;;5.20;;
20008;SDS011;10165;42.662;23.260;2023-04-24T09:01:57;7.60;;;5.10;;
20008;SDS011;10165;42.662;23.260;2023-04-24T09:04:24;11.23;;;5.40;;
20008;SDS011;10165;42.662;23.260;2023-04-24T09:06:54;7.97;;;5.17;;
20008;SDS011;10165;42.662;23.260;2023-04-24T09:09:23;10.67;;;5.40;;
20008;SDS011;10165;42.662;23.260;2023-04-24T09:11:51;10.13;;;5.27;;
20008;SDS011;10165;42.662;23.260;2023-04-24T09:14:20;7.10;;;5.10;;
20008;SDS011;10165;42.662;23.260;2023-04-24T09:16:49;8.53;;;4.93;;
20008;SDS011;10165;42.662;23.260;2023-04-24T09:19:16;7.03;;;5.07;;
20008;SDS011;10165;42.662;23.260;2023-04-24T09:21:45;7.40;;;4.87;;
20008;SDS011;10165;42.662;23.260;2023-04-24T09:24:16;7.27;;;4.90;;
20008;SDS011;10165;42.662;23.260;2023-04-24T09:26:44;6.13;;;4.97;;
20008;SDS011;10165;42.662;23.260;2023-04-24T09:29:18;4.97;;;4.10;;
20008;SDS011;10165;42.662;23.260;2023-04-24T09:31:45;6.60;;;4.37;;
20008;SDS011;10165;42.662;23.260;2023-04-24T09:34:12;8.33;;;5.10;;
20008;SDS011;10165;42.662;23.260;2023-04-24T09:36:41;9.40;;;4.37;;
20008;SDS011;10165;42.662;23.260;2023-04-24T09:39:12;4.63;;;4.20;;
20008;SDS011;10165;42.662;23.260;2023-04-24T09:44:18;7.93;;;4.97;;
20008;SDS011;10165;42.662;23.260;2023-04-24T09:46:50;6.43;;;4.33;;
20008;SDS011;10165;42.662;23.260;2023-04-24T09:49:24;10.90;;;4.73;;
20008;SDS011;10165;42.662;23.260;2023-04-24T09:52:04;12.73;;;5.13;;
20008;SDS011;10165;42.662;23.260;2023-04-24T09:54:33;5.53;;;4.23;;
20008;SDS011;10165;42.662;23.260;2023-04-24T09:57:00;5.07;;;4.57;;
20008;SDS011;10165;42.662;23.260;2023-04-24T09:59:29;6.20;;;4.40;;
20008;SDS011;10165;42.662;23.260;2023-04-24T10:01:56;8.13;;;4.03;;
20008;SDS011;10165;42.662;23.260;2023-04-24T10:04:26;8.30;;;4.10;;
20008;SDS011;10165;42.662;23.260;2023-04-24T10:06:55;4.97;;;3.93;;
20008;SDS011;10165;42.662;23.260;2023-04-24T10:09:23;7.90;;;4.40;;
20008;SDS011;10165;42.662;23.260;2023-04-24T10:11:52;7.43;;;3.53;;
20008;SDS011;10165;42.662;23.260;2023-04-24T10:14:21;10.07;;;4.57;;
20008;SDS011;10165;42.662;23.260;2023-04-24T10:16:52;4.20;;;3.60;;
20008;SDS011;10165;42.662;23.260;2023-04-24T10:19:20;11.20;;;4.20;;
20008;SDS011;10165;42.662;23.260;2023-04-24T10:21:47;8.57;;;3.50;;
20008;SDS011;10165;42.662;23.260;2023-04-24T10:24:14;6.37;;;3.37;;
20008;SDS011;10165;42.662;23.260;2023-04-24T10:26:43;4.97;;;3.10;;
20008;SDS011;10165;42.662;23.260;2023-04-24T10:29:11;7.03;;;2.63;;
20008;SDS011;10165;42.662;23.260;2023-04-24T10:31:39;3.37;;;3.00;;
20008;SDS011;10165;42.662;23.260;2023-04-24T10:34:06;3.40;;;3.00;;
20008;SDS011;10165;42.662;23.260;2023-04-24T10:36:36;10.70;;;3.20;;
20008;SDS011;10165;42.662;23.260;2023-04-24T10:39:07;3.77;;;3.23;;
20008;SDS011;10165;42.662;23.260;2023-04-24T10:41:37;4.67;;;2.97;;
20008;SDS011;10165;42.662;23.260;2023-04-24T10:44:08;2.73;;;2.50;;
20008;SDS011;10165;42.662;23.260;2023-04-24T10:46:39;3.83;;;3.23;;
20008;SDS011;10165;42.662;23.260;2023-04-24T10:49:09;2.87;;;2.67;;
20008;SDS011;10165;42.662;23.260;2023-04-24T10:51:48;3.77;;;2.67;;
20008;SDS011;10165;42.662;23.260;2023-04-24T10:54:28;2.80;;;2.60;;
20008;SDS011;10165;42.662;23.260;2023-04-24T10:59:44;3.23;;;2.63;;
20008;SDS011;10165;42.662;23.260;2023-04-24T11:02:15;3.90;;;3.20;;
20008;SDS011;10165;42.662;23.260;2023-04-24T11:04:43;2.97;;;2.63;;
20008;SDS011;10165;42.662;23.260;2023-04-24T11:07:11;5.20;;;2.70;;
20008;SDS011;10165;42.662;23.260;2023-04-24T11:09:39;5.67;;;2.80;;
20008;SDS011;10165;42.662;23.260;2023-04-24T11:12:10;5.27;;;3.30;;
20008;SDS011;10165;42.662;23.260;2023-04-24T11:17:43;2.50;;;2.30;;
20008;SDS011;10165;42.662;23.260;2023-04-24T11:20:10;3.37;;;3.07;;
20008;SDS011;10165;42.662;23.260;2023-04-24T11:22:54;5.47;;;2.70;;
20008;SDS011;10165;42.662;23.260;2023-04-24T11:25:22;2.83;;;2.63;;
20008;SDS011;10165;42.662;23.260;2023-04-24T11:27:49;4.47;;;2.73;;
20008;SDS011;10165;42.662;23.260;2023-04-24T11:30:19;3.53;;;2.27;;
20008;SDS011;10165;42.662;23.260;2023-04-24T11:32:47;2.83;;;2.50;;
20008;SDS011;10165;42.662;23.260;2023-04-24T11:35:17;3.60;;;3.20;;
20008;SDS011;10165;42.662;23.260;2023-04-24T11:37:48;5.87;;;2.80;;
20008;SDS011;10165;42.662;23.260;2023-04-24T11:40:36;5.63;;;3.30;;
20008;SDS011;10165;42.662;23.260;2023-04-24T11:43:04;5.17;;;3.53;;
20008;SDS011;10165;42.662;23.260;2023-04-24T11:45:33;5.53;;;3.67;;
20008;SDS011;10165;42.662;23.260;2023-04-24T11:48:00;8.53;;;4.33;;
20008;SDS011;10165;42.662;23.260;2023-04-24T11:50:29;9.60;;;3.83;;
20008;SDS011;10165;42.662;23.260;2023-04-24T11:52:56;10.27;;;4.37;;
20008;SDS011;10165;42.662;23.260;2023-04-24T11:55:24;6.37;;;4.10;;
20008;SDS011;10165;42.662;23.260;2023-04-24T11:57:56;5.00;;;3.73;;
20008;SDS011;10165;42.662;23.260;2023-04-24T12:00:26;3.37;;;3.07;;
20008;SDS011;10165;42.662;23.260;2023-04-24T12:03:04;3.40;;;3.00;;
20008;SDS011;10165;42.662;23.260;2023-04-24T12:05:33;3.67;;;3.03;;
20008;SDS011;10165;42.662;23.260;2023-04-24T12:08:01;4.23;;;3.40;;
20008;SDS011;10165;42.662;23.260;2023-04-24T12:10:28;5.10;;;3.03;;
20008;SDS011;10165;42.662;23.260;2023-04-24T12:12:57;3.87;;;3.33;;
20008;SDS011;10165;42.662;23.260;2023-04-24T12:15:24;6.23;;;3.20;;
20008;SDS011;10165;42.662;23.260;2023-04-24T12:17:52;8.40;;;3.83;;
20008;SDS011;10165;42.662;23.260;2023-04-24T12:20:24;4.43;;;3.40;;
20008;SDS011;10165;42.662;23.260;2023-04-24T12:22:56;4.20;;;2.97;;
20008;SDS011;10165;42.662;23.260;2023-04-24T12:25:25;5.30;;;3.67;;
20008;SDS011;10165;42.662;23.260;2023-04-24T12:28:14;6.10;;;3.40;;
20008;SDS011;10165;42.662;23.260;2023-04-24T12:30:43;3.90;;;3.47;;
20008;SDS011;10165;42.662;23.260;2023-04-24T12:33:18;3.30;;;3.00;;
20008;SDS011;10165;42.662;23.260;2023-04-24T12:35:47;6.87;;;3.50;;
20008;SDS011;10165;42.662;23.260;2023-04-24T12:38:15;6.13;;;4.10;;
20008;SDS011;10165;42.662;23.260;2023-04-24T12:40:42;5.07;;;3.37;;
20008;SDS011;10165;42.662;23.260;2023-04-24T12:43:27;8.47;;;3.70;;
20008;SDS011;10165;42.662;23.260;2023-04-24T12:45:54;5.67;;;3.27;;
20008;SDS011;10165;42.662;23.260;2023-04-24T12:48:21;4.07;;;3.30;;
20008;SDS011;10165;42.662;23.260;2023-04-24T12:50:48;5.17;;;3.40;;
20008;SDS011;10165;42.662;23.260;2023-04-24T12:53:15;6.87;;;3.40;;
20008;SDS011;10165;42.662;23.260;2023-04-24T12:55:42;3.83;;;3.10;;
20008;SDS011;10165;42.662;23.260;2023-04-24T12:58:10;5.03;;;3.20;;
20008;SDS011;10165;42.662;23.260;2023-04-24T13:00:38;5.30;;;2.87;;
20008;SDS011;10165;42.662;23.260;2023-04-24T13:03:05;3.27;;;2.97;;
20008;SDS011;10165;42.662;23.260;2023-04-24T13:05:32;5.00;;;2.80;;
20008;SDS011;10165;42.662;23.260;2023-04-24T13:07:58;4.10;;;3.00;;
20008;SDS011;10165;42.662;23.260;2023-04-24T13:10:25;3.40;;;3.10;;
20008;SDS011;10165;42.662;23.260;2023-04-24T13:12:52;12.37;;;3.70;;
20008;SDS011;10165;42.662;23.260;2023-04-24T13:15:19;3.50;;;2.63;;
20008;SDS011;10165;42.662;23.260;2023-04-24T13:17:46;3.53;;;2.87;;
20008;SDS011;10165;42.662;23.260;2023-04-24T13:20:13;3.73;;;3.20;;
20008;SDS011;10165;42.662;23.260;2023-04-24T13:22:39;5.03;;;3.10;;
20008;SDS011;10165;42.662;23.260;2023-04-24T13:25:06;3.17;;;2.63;;
20008;SDS011;10165;42.662;23.260;2023-04-24T13:27:33;4.23;;;3.50;;
20008;SDS011;10165;42.662;23.260;2023-04-24T13:30:00;5.07;;;2.97;;
20008;SDS011;10165;42.662;23.260;2023-04-24T13:32:27;6.10;;;3.53;;
20008;SDS011;10165;42.662;23.260;2023-04-24T13:34:55;3.50;;;3.13;;
20008;SDS011;10165;42.662;23.260;2023-04-24T13:37:22;4.30;;;3.10;;
20008;SDS011;10165;42.662;23.260;2023-04-24T13:39:49;6.90;;;3.30;;
20008;SDS011;10165;42.662;23.260;2023-04-24T13:42:17;7.13;;;2.90;;
20008;SDS011;10165;42.662;23.260;2023-04-24T13:44:45;3.50;;;2.67;;
20008;SDS011;10165;42.662;23.260;2023-04-24T13:47:11;4.67;;;3.20;;
20008;SDS011;10165;42.662;23.260;2023-04-24T13:49:38;5.03;;;2.73;;
20008;SDS011;10165;42.662;23.260;2023-04-24T13:52:05;5.60;;;3.30;;
20008;SDS011;10165;42.662;23.260;2023-04-24T13:54:31;5.00;;;2.70;;
20008;SDS011;10165;42.662;23.260;2023-04-24T13:56:58;4.33;;;2.80;;
20008;SDS011;10165;42.662;23.260;2023-04-24T13:59:26;5.97;;;2.97;;
20008;SDS011;10165;42.662;23.260;2023-04-24T14:01:53;3.57;;;2.90;;
20008;SDS011;10165;42.662;23.260;2023-04-24T14:04:20;3.33;;;3.03;;
20008;SDS011;10165;42.662;23.260;2023-04-24T14:06:47;4.20;;;2.70;;
20008;SDS011;10165;42.662;23.260;2023-04-24T14:09:13;5.07;;;2.90;;
20008;SDS011;10165;42.662;23.260;2023-04-24T14:11:40;2.77;;;2.57;;
20008;SDS011;10165;42.662;23.260;2023-04-24T14:14:07;4.77;;;3.20;;
20008;SDS011;10165;42.662;23.260;2023-04-24T14:16:34;3.60;;;3.20;;
20008;SDS011;10165;42.662;23.260;2023-04-24T14:19:01;5.33;;;2.73;;
20008;SDS011;10165;42.662;23.260;2023-04-24T14:21:28;3.23;;;2.53;;
20008;SDS011;10165;42.662;23.260;2023-04-24T14:23:54;6.33;;;2.53;;
20008;SDS011;10165;42.662;23.260;2023-04-24T14:26:21;4.77;;;2.70;;
20008;SDS011;10165;42.662;23.260;2023-04-24T14:28:48;4.60;;;2.50;;
20008;SDS011;10165;42.662;23.260;2023-04-24T14:31:16;4.13;;;2.70;;
20008;SDS011;10165;42.662;23.260;2023-04-24T14:33:43;3.07;;;2.57;;
20008;SDS011;10165;42.662;23.260;2023-04-24T14:36:10;3.17;;;2.43;;
20008;SDS011;10165;42.662;23.260;2023-04-24T14:38:37;6.97;;;2.87;;
20008;SDS011;10165;42.662;23.260;2023-04-24T14:41:03;3.63;;;2.77;;
20008;SDS011;10165;42.662;23.260;2023-04-24T14:43:39;2.90;;;2.50;;
20008;SDS011;10165;42.662;23.260;2023-04-24T14:46:06;5.27;;;2.90;;